weather.gov     
National Weather Service

Terminal Aerodrome Forecast
NWS Homepage
This page is being discontinued on March 12, 2014.
The same data is available at this site. Please update your bookmarks.
Thank you, and we apologize for the inconvenience.
Please send an email to SR-SRH.Webmaster@noaa.gov with any concerns.


Current Version
Previous Version:    01  02  03  04  05  06  07  08  09  10  11  12  13  14  15  16  17  18  19  20  21  22  23  24  25  26  27  28  29  30  
   31  32  33  34  35  36  37  38  39  40  41  
[Printable]
590
FTUS46 KPQR 291735
TAFHIO
TAF
KHIO 291735Z 2918/3018 00000KT 1/4SM FG VV001
     FM292000 00000KT 3SM BR BKN007
     FM292200 05002KT P6SM SCT007 SCT120
     FM300400 VRB02KT 2SM BR SCT005
     FM301400 00000KT 1SM BR SCT005=


590
FTUS46 KPQR 291735
TAFHIO
TAF
KHIO 291735Z 2918/3018 00000KT 1/4SM FG VV001
     FM292000 00000KT 3SM BR BKN007
     FM292200 05002KT P6SM SCT007 SCT120
     FM300400 VRB02KT 2SM BR SCT005
     FM301400 00000KT 1SM BR SCT005=




U.S. Dept. of Commerce
NOAA National Weather Service
1325 East West Highway
Silver Spring, MD 20910
E-mail: w-nws.webmaster@noaa.gov
Page last modified: May 16, 2007
NATIONAL WEATHER SERVICE: for Safety, for Work, for Fun - FOR LIFE